sensor_id;sensor_type;location;lat;lon;timestamp;P1;durP1;ratioP1;P2;durP2;ratioP2
54923;SDS011;40825;52.270;20.984;2023-06-10T00:01:52;10.20;;;5.70;;
54923;SDS011;40825;52.270;20.984;2023-06-10T00:04:20;11.60;;;5.10;;
54923;SDS011;40825;52.270;20.984;2023-06-10T00:06:46;10.60;;;5.30;;
54923;SDS011;40825;52.270;20.984;2023-06-10T00:09:13;9.10;;;4.80;;
54923;SDS011;40825;52.270;20.984;2023-06-10T00:11:39;10.50;;;4.80;;
54923;SDS011;40825;52.270;20.984;2023-06-10T00:14:06;9.80;;;4.20;;
54923;SDS011;40825;52.270;20.984;2023-06-10T00:16:32;8.80;;;4.20;;
54923;SDS011;40825;52.270;20.984;2023-06-10T00:19:00;9.10;;;4.70;;
54923;SDS011;40825;52.270;20.984;2023-06-10T00:21:27;8.40;;;5.10;;
54923;SDS011;40825;52.270;20.984;2023-06-10T00:23:53;10.00;;;5.10;;
54923;SDS011;40825;52.270;20.984;2023-06-10T00:26:21;8.30;;;4.70;;
54923;SDS011;40825;52.270;20.984;2023-06-10T00:28:47;8.10;;;4.20;;
54923;SDS011;40825;52.270;20.984;2023-06-10T00:31:12;8.80;;;4.70;;
54923;SDS011;40825;52.270;20.984;2023-06-10T00:33:38;10.30;;;4.50;;
54923;SDS011;40825;52.270;20.984;2023-06-10T00:36:03;9.50;;;4.50;;
54923;SDS011;40825;52.270;20.984;2023-06-10T00:38:29;17.30;;;4.70;;
54923;SDS011;40825;52.270;20.984;2023-06-10T00:40:55;8.70;;;4.10;;
54923;SDS011;40825;52.270;20.984;2023-06-10T00:43:21;8.10;;;4.30;;
54923;SDS011;40825;52.270;20.984;2023-06-10T00:45:47;8.30;;;4.30;;
54923;SDS011;40825;52.270;20.984;2023-06-10T00:48:12;8.60;;;4.30;;
54923;SDS011;40825;52.270;20.984;2023-06-10T00:50:38;11.00;;;4.10;;
54923;SDS011;40825;52.270;20.984;2023-06-10T00:53:04;7.40;;;3.80;;
54923;SDS011;40825;52.270;20.984;2023-06-10T00:55:31;7.20;;;3.50;;
54923;SDS011;40825;52.270;20.984;2023-06-10T00:57:57;9.20;;;3.80;;
54923;SDS011;40825;52.270;20.984;2023-06-10T01:00:25;7.70;;;3.80;;
54923;SDS011;40825;52.270;20.984;2023-06-10T01:02:51;9.10;;;4.30;;
54923;SDS011;40825;52.270;20.984;2023-06-10T01:05:20;7.10;;;3.40;;
54923;SDS011;40825;52.270;20.984;2023-06-10T01:10:26;8.40;;;4.00;;
54923;SDS011;40825;52.270;20.984;2023-06-10T01:12:59;9.20;;;4.30;;
54923;SDS011;40825;52.270;20.984;2023-06-10T01:15:30;9.10;;;3.50;;
54923;SDS011;40825;52.270;20.984;2023-06-10T01:18:00;8.80;;;3.80;;
54923;SDS011;40825;52.270;20.984;2023-06-10T01:20:34;8.80;;;3.20;;
54923;SDS011;40825;52.270;20.984;2023-06-10T01:23:02;7.50;;;3.30;;
54923;SDS011;40825;52.270;20.984;2023-06-10T01:25:28;7.40;;;4.20;;
54923;SDS011;40825;52.270;20.984;2023-06-10T01:30:37;8.00;;;3.10;;
54923;SDS011;40825;52.270;20.984;2023-06-10T01:33:12;11.30;;;3.70;;
54923;SDS011;40825;52.270;20.984;2023-06-10T01:35:42;8.70;;;3.50;;
54923;SDS011;40825;52.270;20.984;2023-06-10T01:38:09;8.80;;;3.40;;
54923;SDS011;40825;52.270;20.984;2023-06-10T01:40:37;10.30;;;4.00;;
54923;SDS011;40825;52.270;20.984;2023-06-10T01:43:04;6.90;;;3.30;;
54923;SDS011;40825;52.270;20.984;2023-06-10T01:45:30;7.70;;;3.10;;
54923;SDS011;40825;52.270;20.984;2023-06-10T01:47:55;9.50;;;3.60;;
54923;SDS011;40825;52.270;20.984;2023-06-10T01:50:20;7.30;;;3.30;;
54923;SDS011;40825;52.270;20.984;2023-06-10T01:52:46;7.60;;;2.80;;
54923;SDS011;40825;52.270;20.984;2023-06-10T01:55:12;7.00;;;2.60;;
54923;SDS011;40825;52.270;20.984;2023-06-10T01:57:37;8.00;;;3.80;;
54923;SDS011;40825;52.270;20.984;2023-06-10T02:00:03;10.10;;;3.30;;
54923;SDS011;40825;52.270;20.984;2023-06-10T02:02:28;8.70;;;3.80;;
54923;SDS011;40825;52.270;20.984;2023-06-10T02:04:54;8.60;;;3.90;;
54923;SDS011;40825;52.270;20.984;2023-06-10T02:07:20;10.30;;;3.10;;
54923;SDS011;40825;52.270;20.984;2023-06-10T02:09:45;6.90;;;2.90;;
54923;SDS011;40825;52.270;20.984;2023-06-10T02:12:11;7.40;;;3.40;;
54923;SDS011;40825;52.270;20.984;2023-06-10T02:14:36;7.40;;;3.10;;
54923;SDS011;40825;52.270;20.984;2023-06-10T02:17:02;8.30;;;3.20;;
54923;SDS011;40825;52.270;20.984;2023-06-10T02:19:28;9.40;;;3.30;;
54923;SDS011;40825;52.270;20.984;2023-06-10T02:21:53;8.80;;;3.30;;
54923;SDS011;40825;52.270;20.984;2023-06-10T02:24:19;10.30;;;3.60;;
54923;SDS011;40825;52.270;20.984;2023-06-10T02:26:45;8.20;;;3.70;;
54923;SDS011;40825;52.270;20.984;2023-06-10T02:29:11;8.40;;;3.20;;
54923;SDS011;40825;52.270;20.984;2023-06-10T02:31:37;8.00;;;3.30;;
54923;SDS011;40825;52.270;20.984;2023-06-10T02:34:02;10.40;;;3.50;;
54923;SDS011;40825;52.270;20.984;2023-06-10T02:36:29;8.60;;;3.50;;
54923;SDS011;40825;52.270;20.984;2023-06-10T02:38:54;8.20;;;2.80;;
54923;SDS011;40825;52.270;20.984;2023-06-10T02:41:20;8.80;;;3.20;;
54923;SDS011;40825;52.270;20.984;2023-06-10T02:43:47;7.00;;;2.90;;
54923;SDS011;40825;52.270;20.984;2023-06-10T02:46:13;6.10;;;3.10;;
54923;SDS011;40825;52.270;20.984;2023-06-10T02:48:45;6.70;;;3.50;;
54923;SDS011;40825;52.270;20.984;2023-06-10T02:51:11;8.20;;;3.00;;
54923;SDS011;40825;52.270;20.984;2023-06-10T02:53:37;6.30;;;2.80;;
54923;SDS011;40825;52.270;20.984;2023-06-10T02:56:03;7.70;;;3.20;;
54923;SDS011;40825;52.270;20.984;2023-06-10T02:58:28;5.70;;;2.90;;
54923;SDS011;40825;52.270;20.984;2023-06-10T03:00:54;7.10;;;3.00;;
54923;SDS011;40825;52.270;20.984;2023-06-10T03:03:20;7.80;;;3.00;;
54923;SDS011;40825;52.270;20.984;2023-06-10T03:05:48;7.80;;;3.20;;
54923;SDS011;40825;52.270;20.984;2023-06-10T03:08:14;7.90;;;3.10;;
54923;SDS011;40825;52.270;20.984;2023-06-10T03:10:41;8.80;;;3.40;;
54923;SDS011;40825;52.270;20.984;2023-06-10T03:13:06;6.60;;;3.00;;
54923;SDS011;40825;52.270;20.984;2023-06-10T03:15:32;7.20;;;3.10;;
54923;SDS011;40825;52.270;20.984;2023-06-10T03:18:01;8.00;;;2.90;;
54923;SDS011;40825;52.270;20.984;2023-06-10T03:20:27;10.20;;;3.00;;
54923;SDS011;40825;52.270;20.984;2023-06-10T03:22:53;11.90;;;3.60;;
54923;SDS011;40825;52.270;20.984;2023-06-10T03:25:19;7.20;;;2.60;;
54923;SDS011;40825;52.270;20.984;2023-06-10T03:27:46;7.60;;;3.00;;
54923;SDS011;40825;52.270;20.984;2023-06-10T03:30:12;6.50;;;3.40;;
54923;SDS011;40825;52.270;20.984;2023-06-10T03:32:38;11.00;;;3.00;;
54923;SDS011;40825;52.270;20.984;2023-06-10T03:35:04;8.00;;;3.30;;
54923;SDS011;40825;52.270;20.984;2023-06-10T03:37:31;5.80;;;2.70;;
54923;SDS011;40825;52.270;20.984;2023-06-10T03:39:57;6.60;;;2.90;;
54923;SDS011;40825;52.270;20.984;2023-06-10T03:42:22;7.60;;;3.30;;
54923;SDS011;40825;52.270;20.984;2023-06-10T03:44:48;7.30;;;3.30;;
54923;SDS011;40825;52.270;20.984;2023-06-10T03:47:13;7.30;;;3.30;;
54923;SDS011;40825;52.270;20.984;2023-06-10T03:49:39;8.30;;;3.00;;
54923;SDS011;40825;52.270;20.984;2023-06-10T03:52:05;8.20;;;3.10;;
54923;SDS011;40825;52.270;20.984;2023-06-10T03:54:32;9.70;;;3.30;;
54923;SDS011;40825;52.270;20.984;2023-06-10T03:57:00;9.40;;;3.20;;
54923;SDS011;40825;52.270;20.984;2023-06-10T03:59:26;8.10;;;3.20;;
54923;SDS011;40825;52.270;20.984;2023-06-10T04:01:51;8.10;;;2.90;;
54923;SDS011;40825;52.270;20.984;2023-06-10T04:04:17;8.10;;;3.40;;
54923;SDS011;40825;52.270;20.984;2023-06-10T04:06:43;10.50;;;3.20;;
54923;SDS011;40825;52.270;20.984;2023-06-10T04:09:09;7.30;;;3.20;;
54923;SDS011;40825;52.270;20.984;2023-06-10T04:11:35;8.90;;;3.60;;
54923;SDS011;40825;52.270;20.984;2023-06-10T04:14:02;5.70;;;2.70;;
54923;SDS011;40825;52.270;20.984;2023-06-10T04:16:28;8.60;;;3.40;;
54923;SDS011;40825;52.270;20.984;2023-06-10T04:18:53;6.60;;;2.90;;
54923;SDS011;40825;52.270;20.984;2023-06-10T04:21:19;6.60;;;2.80;;
54923;SDS011;40825;52.270;20.984;2023-06-10T04:23:44;7.00;;;3.00;;
54923;SDS011;40825;52.270;20.984;2023-06-10T04:26:10;5.90;;;2.60;;
54923;SDS011;40825;52.270;20.984;2023-06-10T04:28:37;7.40;;;3.00;;
54923;SDS011;40825;52.270;20.984;2023-06-10T04:31:03;7.30;;;2.70;;
54923;SDS011;40825;52.270;20.984;2023-06-10T04:33:29;8.90;;;3.40;;
54923;SDS011;40825;52.270;20.984;2023-06-10T04:35:56;9.70;;;3.20;;
54923;SDS011;40825;52.270;20.984;2023-06-10T04:38:21;12.70;;;3.60;;
54923;SDS011;40825;52.270;20.984;2023-06-10T04:40:47;10.80;;;3.10;;
54923;SDS011;40825;52.270;20.984;2023-06-10T04:43:13;8.80;;;3.40;;
54923;SDS011;40825;52.270;20.984;2023-06-10T04:45:39;8.90;;;3.00;;
54923;SDS011;40825;52.270;20.984;2023-06-10T04:48:04;7.80;;;3.10;;
54923;SDS011;40825;52.270;20.984;2023-06-10T04:50:31;5.50;;;2.70;;
54923;SDS011;40825;52.270;20.984;2023-06-10T04:52:58;8.50;;;3.10;;
54923;SDS011;40825;52.270;20.984;2023-06-10T04:55:24;6.90;;;2.90;;
54923;SDS011;40825;52.270;20.984;2023-06-10T04:57:50;8.20;;;2.70;;
54923;SDS011;40825;52.270;20.984;2023-06-10T05:00:16;7.80;;;2.80;;
54923;SDS011;40825;52.270;20.984;2023-06-10T05:02:42;9.40;;;3.40;;
54923;SDS011;40825;52.270;20.984;2023-06-10T05:05:08;6.90;;;2.90;;
54923;SDS011;40825;52.270;20.984;2023-06-10T05:07:33;9.50;;;4.00;;
54923;SDS011;40825;52.270;20.984;2023-06-10T05:09:59;6.20;;;2.80;;
54923;SDS011;40825;52.270;20.984;2023-06-10T05:12:25;6.70;;;3.10;;
54923;SDS011;40825;52.270;20.984;2023-06-10T05:14:51;11.60;;;3.90;;
54923;SDS011;40825;52.270;20.984;2023-06-10T05:17:16;6.10;;;3.20;;
54923;SDS011;40825;52.270;20.984;2023-06-10T05:19:42;8.60;;;3.30;;
54923;SDS011;40825;52.270;20.984;2023-06-10T05:22:08;6.50;;;3.00;;
54923;SDS011;40825;52.270;20.984;2023-06-10T05:24:34;8.40;;;3.60;;
54923;SDS011;40825;52.270;20.984;2023-06-10T05:27:00;10.00;;;3.90;;
54923;SDS011;40825;52.270;20.984;2023-06-10T05:29:25;7.40;;;2.90;;
54923;SDS011;40825;52.270;20.984;2023-06-10T05:31:51;9.20;;;3.00;;
54923;SDS011;40825;52.270;20.984;2023-06-10T05:34:16;8.60;;;4.00;;
54923;SDS011;40825;52.270;20.984;2023-06-10T05:36:42;7.90;;;3.10;;
54923;SDS011;40825;52.270;20.984;2023-06-10T05:39:08;7.70;;;3.20;;
54923;SDS011;40825;52.270;20.984;2023-06-10T05:41:34;7.00;;;3.00;;
54923;SDS011;40825;52.270;20.984;2023-06-10T05:44:00;10.40;;;3.90;;
54923;SDS011;40825;52.270;20.984;2023-06-10T05:46:25;8.20;;;3.00;;
54923;SDS011;40825;52.270;20.984;2023-06-10T05:48:51;8.10;;;2.90;;
54923;SDS011;40825;52.270;20.984;2023-06-10T05:51:16;10.00;;;4.10;;
54923;SDS011;40825;52.270;20.984;2023-06-10T05:53:42;7.20;;;3.10;;
54923;SDS011;40825;52.270;20.984;2023-06-10T05:56:07;6.00;;;3.60;;
54923;SDS011;40825;52.270;20.984;2023-06-10T05:58:33;9.50;;;3.50;;
54923;SDS011;40825;52.270;20.984;2023-06-10T06:00:58;7.30;;;3.60;;
54923;SDS011;40825;52.270;20.984;2023-06-10T06:03:24;6.80;;;3.30;;
54923;SDS011;40825;52.270;20.984;2023-06-10T06:05:49;7.40;;;3.60;;
54923;SDS011;40825;52.270;20.984;2023-06-10T06:08:15;8.10;;;3.60;;
54923;SDS011;40825;52.270;20.984;2023-06-10T06:10:44;7.40;;;3.10;;
54923;SDS011;40825;52.270;20.984;2023-06-10T06:13:10;8.50;;;4.00;;
54923;SDS011;40825;52.270;20.984;2023-06-10T06:15:35;9.20;;;3.70;;
54923;SDS011;40825;52.270;20.984;2023-06-10T06:18:01;7.50;;;4.10;;
54923;SDS011;40825;52.270;20.984;2023-06-10T06:20:26;5.40;;;3.10;;
54923;SDS011;40825;52.270;20.984;2023-06-10T06:22:52;7.70;;;4.10;;
54923;SDS011;40825;52.270;20.984;2023-06-10T06:25:17;6.90;;;3.70;;
54923;SDS011;40825;52.270;20.984;2023-06-10T06:27:43;5.10;;;3.00;;
54923;SDS011;40825;52.270;20.984;2023-06-10T06:30:08;6.30;;;3.70;;
54923;SDS011;40825;52.270;20.984;2023-06-10T06:32:34;7.80;;;3.40;;
54923;SDS011;40825;52.270;20.984;2023-06-10T06:34:59;7.10;;;3.50;;
54923;SDS011;40825;52.270;20.984;2023-06-10T06:37:25;7.40;;;3.40;;
54923;SDS011;40825;52.270;20.984;2023-06-10T06:39:51;7.40;;;3.90;;
54923;SDS011;40825;52.270;20.984;2023-06-10T06:42:18;6.50;;;3.20;;
54923;SDS011;40825;52.270;20.984;2023-06-10T06:44:44;7.20;;;3.50;;
54923;SDS011;40825;52.270;20.984;2023-06-10T06:47:10;6.70;;;2.80;;
54923;SDS011;40825;52.270;20.984;2023-06-10T06:49:35;10.00;;;4.20;;
54923;SDS011;40825;52.270;20.984;2023-06-10T06:52:01;8.70;;;3.30;;
54923;SDS011;40825;52.270;20.984;2023-06-10T06:54:27;7.50;;;3.80;;
54923;SDS011;40825;52.270;20.984;2023-06-10T06:56:53;12.00;;;3.90;;
54923;SDS011;40825;52.270;20.984;2023-06-10T06:59:18;10.00;;;4.10;;
54923;SDS011;40825;52.270;20.984;2023-06-10T07:01:44;8.90;;;3.10;;
54923;SDS011;40825;52.270;20.984;2023-06-10T07:04:11;6.30;;;3.70;;
54923;SDS011;40825;52.270;20.984;2023-06-10T07:06:37;12.30;;;4.20;;
54923;SDS011;40825;52.270;20.984;2023-06-10T07:09:03;18.20;;;4.10;;
54923;SDS011;40825;52.270;20.984;2023-06-10T07:11:30;10.30;;;3.90;;
54923;SDS011;40825;52.270;20.984;2023-06-10T07:13:56;7.10;;;3.60;;
54923;SDS011;40825;52.270;20.984;2023-06-10T07:16:21;7.90;;;3.60;;
54923;SDS011;40825;52.270;20.984;2023-06-10T07:18:48;9.10;;;3.70;;
54923;SDS011;40825;52.270;20.984;2023-06-10T07:21:13;6.60;;;2.90;;
54923;SDS011;40825;52.270;20.984;2023-06-10T07:23:41;7.30;;;3.50;;
54923;SDS011;40825;52.270;20.984;2023-06-10T07:26:08;10.60;;;3.60;;
54923;SDS011;40825;52.270;20.984;2023-06-10T07:28:39;10.60;;;3.80;;
54923;SDS011;40825;52.270;20.984;2023-06-10T07:31:06;7.20;;;3.40;;
54923;SDS011;40825;52.270;20.984;2023-06-10T07:33:32;6.20;;;3.70;;
54923;SDS011;40825;52.270;20.984;2023-06-10T07:35:57;7.90;;;3.00;;
54923;SDS011;40825;52.270;20.984;2023-06-10T07:38:24;6.10;;;3.60;;
54923;SDS011;40825;52.270;20.984;2023-06-10T07:40:50;5.20;;;2.90;;
54923;SDS011;40825;52.270;20.984;2023-06-10T07:43:16;8.20;;;4.30;;
54923;SDS011;40825;52.270;20.984;2023-06-10T07:45:42;6.90;;;3.60;;
54923;SDS011;40825;52.270;20.984;2023-06-10T07:48:08;7.10;;;3.70;;
54923;SDS011;40825;52.270;20.984;2023-06-10T07:50:34;8.50;;;4.30;;
54923;SDS011;40825;52.270;20.984;2023-06-10T07:53:00;8.40;;;3.70;;
54923;SDS011;40825;52.270;20.984;2023-06-10T07:55:25;8.10;;;3.20;;
54923;SDS011;40825;52.270;20.984;2023-06-10T07:57:51;5.50;;;3.00;;
54923;SDS011;40825;52.270;20.984;2023-06-10T08:00:17;6.50;;;4.00;;
54923;SDS011;40825;52.270;20.984;2023-06-10T08:02:43;7.00;;;4.00;;
54923;SDS011;40825;52.270;20.984;2023-06-10T08:05:09;6.20;;;4.10;;
54923;SDS011;40825;52.270;20.984;2023-06-10T08:07:35;6.80;;;3.60;;
54923;SDS011;40825;52.270;20.984;2023-06-10T08:10:01;7.60;;;3.10;;
54923;SDS011;40825;52.270;20.984;2023-06-10T08:12:26;7.10;;;3.60;;
54923;SDS011;40825;52.270;20.984;2023-06-10T08:14:52;7.50;;;3.90;;
54923;SDS011;40825;52.270;20.984;2023-06-10T08:17:17;7.30;;;3.50;;
54923;SDS011;40825;52.270;20.984;2023-06-10T08:19:43;8.70;;;4.30;;
54923;SDS011;40825;52.270;20.984;2023-06-10T08:22:08;6.70;;;3.20;;
54923;SDS011;40825;52.270;20.984;2023-06-10T08:24:35;7.20;;;3.20;;
54923;SDS011;40825;52.270;20.984;2023-06-10T08:27:00;7.30;;;4.20;;
54923;SDS011;40825;52.270;20.984;2023-06-10T08:29:26;7.20;;;2.80;;
54923;SDS011;40825;52.270;20.984;2023-06-10T08:31:51;6.60;;;3.30;;
54923;SDS011;40825;52.270;20.984;2023-06-10T08:34:17;8.30;;;3.70;;
54923;SDS011;40825;52.270;20.984;2023-06-10T08:36:43;7.30;;;3.50;;
54923;SDS011;40825;52.270;20.984;2023-06-10T08:39:10;8.80;;;4.10;;
54923;SDS011;40825;52.270;20.984;2023-06-10T08:41:35;10.20;;;3.90;;
54923;SDS011;40825;52.270;20.984;2023-06-10T08:46:52;8.40;;;4.00;;
54923;SDS011;40825;52.270;20.984;2023-06-10T08:49:20;6.10;;;3.20;;
54923;SDS011;40825;52.270;20.984;2023-06-10T08:51:50;6.30;;;3.20;;
54923;SDS011;40825;52.270;20.984;2023-06-10T08:54:20;5.30;;;3.10;;
54923;SDS011;40825;52.270;20.984;2023-06-10T08:56:50;7.10;;;3.50;;
54923;SDS011;40825;52.270;20.984;2023-06-10T08:59:16;9.20;;;3.30;;
54923;SDS011;40825;52.270;20.984;2023-06-10T09:01:44;6.90;;;3.10;;
54923;SDS011;40825;52.270;20.984;2023-06-10T09:04:10;8.50;;;4.20;;
54923;SDS011;40825;52.270;20.984;2023-06-10T09:06:37;7.70;;;3.50;;
54923;SDS011;40825;52.270;20.984;2023-06-10T09:09:05;6.30;;;3.20;;
54923;SDS011;40825;52.270;20.984;2023-06-10T09:11:32;11.30;;;3.40;;
54923;SDS011;40825;52.270;20.984;2023-06-10T09:13:58;8.90;;;3.20;;
54923;SDS011;40825;52.270;20.984;2023-06-10T09:16:24;10.50;;;3.50;;
54923;SDS011;40825;52.270;20.984;2023-06-10T09:18:50;9.90;;;3.30;;
54923;SDS011;40825;52.270;20.984;2023-06-10T09:21:23;8.20;;;3.90;;
54923;SDS011;40825;52.270;20.984;2023-06-10T09:23:49;9.00;;;3.20;;
54923;SDS011;40825;52.270;20.984;2023-06-10T09:26:15;11.70;;;3.10;;
54923;SDS011;40825;52.270;20.984;2023-06-10T09:28:42;7.00;;;3.10;;
54923;SDS011;40825;52.270;20.984;2023-06-10T09:31:09;7.30;;;3.50;;
54923;SDS011;40825;52.270;20.984;2023-06-10T09:33:38;9.40;;;3.70;;
54923;SDS011;40825;52.270;20.984;2023-06-10T09:36:04;7.60;;;2.90;;
54923;SDS011;40825;52.270;20.984;2023-06-10T09:38:31;8.40;;;3.00;;
54923;SDS011;40825;52.270;20.984;2023-06-10T09:43:38;8.80;;;3.20;;
54923;SDS011;40825;52.270;20.984;2023-06-10T09:46:15;7.50;;;3.10;;
54923;SDS011;40825;52.270;20.984;2023-06-10T09:48:46;9.10;;;3.30;;
54923;SDS011;40825;52.270;20.984;2023-06-10T09:51:13;7.30;;;2.60;;
54923;SDS011;40825;52.270;20.984;2023-06-10T09:53:39;5.30;;;2.50;;
54923;SDS011;40825;52.270;20.984;2023-06-10T09:56:05;6.60;;;2.80;;
54923;SDS011;40825;52.270;20.984;2023-06-10T09:58:34;5.60;;;2.40;;
54923;SDS011;40825;52.270;20.984;2023-06-10T10:01:04;5.20;;;2.90;;
54923;SDS011;40825;52.270;20.984;2023-06-10T10:03:30;5.70;;;2.30;;
54923;SDS011;40825;52.270;20.984;2023-06-10T10:05:57;10.10;;;3.10;;
54923;SDS011;40825;52.270;20.984;2023-06-10T10:08:25;5.80;;;2.80;;
54923;SDS011;40825;52.270;20.984;2023-06-10T10:10:50;6.50;;;2.50;;
54923;SDS011;40825;52.270;20.984;2023-06-10T10:13:16;9.70;;;3.10;;
54923;SDS011;40825;52.270;20.984;2023-06-10T10:15:43;8.00;;;2.60;;
54923;SDS011;40825;52.270;20.984;2023-06-10T10:21:01;8.70;;;2.50;;
54923;SDS011;40825;52.270;20.984;2023-06-10T10:23:37;5.60;;;2.50;;
54923;SDS011;40825;52.270;20.984;2023-06-10T10:26:18;8.10;;;2.50;;
54923;SDS011;40825;52.270;20.984;2023-06-10T10:31:46;5.00;;;2.70;;
54923;SDS011;40825;52.270;20.984;2023-06-10T10:34:15;6.60;;;2.40;;
54923;SDS011;40825;52.270;20.984;2023-06-10T10:36:44;7.70;;;2.50;;
54923;SDS011;40825;52.270;20.984;2023-06-10T10:39:10;5.80;;;2.90;;
54923;SDS011;40825;52.270;20.984;2023-06-10T10:41:37;8.90;;;2.90;;
54923;SDS011;40825;52.270;20.984;2023-06-10T10:44:05;6.20;;;2.40;;
54923;SDS011;40825;52.270;20.984;2023-06-10T10:49:29;6.30;;;2.50;;
54923;SDS011;40825;52.270;20.984;2023-06-10T10:51:57;6.70;;;2.70;;
54923;SDS011;40825;52.270;20.984;2023-06-10T10:54:31;6.20;;;2.90;;
54923;SDS011;40825;52.270;20.984;2023-06-10T10:59:51;6.90;;;2.70;;
54923;SDS011;40825;52.270;20.984;2023-06-10T11:02:35;5.30;;;2.90;;
54923;SDS011;40825;52.270;20.984;2023-06-10T11:05:15;4.60;;;2.70;;
54923;SDS011;40825;52.270;20.984;2023-06-10T11:07:52;4.90;;;2.40;;
54923;SDS011;40825;52.270;20.984;2023-06-10T11:10:34;6.70;;;2.40;;
54923;SDS011;40825;52.270;20.984;2023-06-10T11:13:14;7.70;;;2.70;;
54923;SDS011;40825;52.270;20.984;2023-06-10T11:15:50;4.60;;;2.90;;
54923;SDS011;40825;52.270;20.984;2023-06-10T11:23:25;9.50;;;2.80;;
54923;SDS011;40825;52.270;20.984;2023-06-10T11:26:12;7.00;;;3.10;;
54923;SDS011;40825;52.270;20.984;2023-06-10T11:29:23;7.00;;;3.10;;
54923;SDS011;40825;52.270;20.984;2023-06-10T11:31:31;5.50;;;3.00;;
54923;SDS011;40825;52.270;20.984;2023-06-10T11:34:02;6.50;;;2.90;;
54923;SDS011;40825;52.270;20.984;2023-06-10T11:36:30;5.20;;;2.80;;
54923;SDS011;40825;52.270;20.984;2023-06-10T11:38:57;7.30;;;2.80;;
54923;SDS011;40825;52.270;20.984;2023-06-10T11:41:24;6.90;;;3.00;;
54923;SDS011;40825;52.270;20.984;2023-06-10T11:43:51;6.70;;;3.20;;
54923;SDS011;40825;52.270;20.984;2023-06-10T11:46:18;6.80;;;3.20;;
54923;SDS011;40825;52.270;20.984;2023-06-10T11:48:53;7.80;;;3.10;;
54923;SDS011;40825;52.270;20.984;2023-06-10T11:51:21;7.50;;;3.00;;
54923;SDS011;40825;52.270;20.984;2023-06-10T11:53:50;6.00;;;2.70;;
54923;SDS011;40825;52.270;20.984;2023-06-10T11:56:22;6.30;;;3.10;;
54923;SDS011;40825;52.270;20.984;2023-06-10T12:01:29;6.40;;;3.00;;
54923;SDS011;40825;52.270;20.984;2023-06-10T12:04:00;9.00;;;3.10;;
54923;SDS011;40825;52.270;20.984;2023-06-10T12:11:45;8.60;;;3.20;;
54923;SDS011;40825;52.270;20.984;2023-06-10T12:14:15;6.90;;;2.80;;
54923;SDS011;40825;52.270;20.984;2023-06-10T12:16:47;5.90;;;3.10;;
54923;SDS011;40825;52.270;20.984;2023-06-10T12:19:13;7.40;;;2.90;;
54923;SDS011;40825;52.270;20.984;2023-06-10T12:21:39;5.80;;;3.10;;
54923;SDS011;40825;52.270;20.984;2023-06-10T12:26:38;5.70;;;2.80;;
54923;SDS011;40825;52.270;20.984;2023-06-10T12:29:19;6.30;;;3.10;;
54923;SDS011;40825;52.270;20.984;2023-06-10T12:34:17;6.50;;;3.40;;
54923;SDS011;40825;52.270;20.984;2023-06-10T12:36:47;11.00;;;3.60;;
54923;SDS011;40825;52.270;20.984;2023-06-10T12:39:14;8.80;;;3.70;;
54923;SDS011;40825;52.270;20.984;2023-06-10T12:41:39;8.90;;;3.40;;
54923;SDS011;40825;52.270;20.984;2023-06-10T12:44:06;8.50;;;3.60;;
54923;SDS011;40825;52.270;20.984;2023-06-10T12:46:37;8.70;;;3.70;;
54923;SDS011;40825;52.270;20.984;2023-06-10T12:49:03;9.80;;;3.60;;
54923;SDS011;40825;52.270;20.984;2023-06-10T12:51:28;7.00;;;3.70;;
54923;SDS011;40825;52.270;20.984;2023-06-10T12:53:54;6.90;;;3.50;;
54923;SDS011;40825;52.270;20.984;2023-06-10T12:56:20;6.70;;;3.90;;
54923;SDS011;40825;52.270;20.984;2023-06-10T12:58:47;7.60;;;3.50;;
54923;SDS011;40825;52.270;20.984;2023-06-10T13:01:13;7.50;;;4.20;;
54923;SDS011;40825;52.270;20.984;2023-06-10T13:03:39;5.60;;;3.30;;
54923;SDS011;40825;52.270;20.984;2023-06-10T13:06:05;6.40;;;3.10;;
54923;SDS011;40825;52.270;20.984;2023-06-10T13:08:31;7.20;;;3.30;;
54923;SDS011;40825;52.270;20.984;2023-06-10T13:10:57;7.50;;;3.40;;
54923;SDS011;40825;52.270;20.984;2023-06-10T13:13:23;5.70;;;3.30;;
54923;SDS011;40825;52.270;20.984;2023-06-10T13:15:49;7.70;;;3.50;;
54923;SDS011;40825;52.270;20.984;2023-06-10T13:18:17;6.50;;;4.10;;
54923;SDS011;40825;52.270;20.984;2023-06-10T13:20:45;9.80;;;4.50;;
54923;SDS011;40825;52.270;20.984;2023-06-10T13:23:11;7.50;;;3.90;;
54923;SDS011;40825;52.270;20.984;2023-06-10T13:25:36;6.70;;;3.40;;
54923;SDS011;40825;52.270;20.984;2023-06-10T13:28:02;9.40;;;3.50;;
54923;SDS011;40825;52.270;20.984;2023-06-10T13:30:27;11.00;;;4.30;;
54923;SDS011;40825;52.270;20.984;2023-06-10T13:32:53;7.50;;;3.60;;
54923;SDS011;40825;52.270;20.984;2023-06-10T13:35:18;7.60;;;3.90;;
54923;SDS011;40825;52.270;20.984;2023-06-10T13:37:44;7.70;;;3.80;;
54923;SDS011;40825;52.270;20.984;2023-06-10T13:40:10;6.50;;;3.30;;
54923;SDS011;40825;52.270;20.984;2023-06-10T13:42:36;7.10;;;3.30;;
54923;SDS011;40825;52.270;20.984;2023-06-10T13:45:02;6.00;;;3.30;;
54923;SDS011;40825;52.270;20.984;2023-06-10T13:47:29;7.90;;;3.60;;
54923;SDS011;40825;52.270;20.984;2023-06-10T13:49:54;8.00;;;3.60;;
54923;SDS011;40825;52.270;20.984;2023-06-10T13:52:20;8.80;;;4.00;;
54923;SDS011;40825;52.270;20.984;2023-06-10T13:54:45;6.20;;;3.00;;
54923;SDS011;40825;52.270;20.984;2023-06-10T13:57:11;7.60;;;3.60;;
54923;SDS011;40825;52.270;20.984;2023-06-10T13:59:36;8.60;;;4.00;;
54923;SDS011;40825;52.270;20.984;2023-06-10T14:02:02;7.30;;;3.40;;
54923;SDS011;40825;52.270;20.984;2023-06-10T14:04:28;7.40;;;4.00;;
54923;SDS011;40825;52.270;20.984;2023-06-10T14:06:53;9.80;;;3.70;;
54923;SDS011;40825;52.270;20.984;2023-06-10T14:09:18;7.20;;;4.00;;
54923;SDS011;40825;52.270;20.984;2023-06-10T14:11:44;8.80;;;4.00;;
54923;SDS011;40825;52.270;20.984;2023-06-10T14:14:10;7.40;;;3.50;;
54923;SDS011;40825;52.270;20.984;2023-06-10T14:16:35;7.00;;;3.80;;
54923;SDS011;40825;52.270;20.984;2023-06-10T14:19:01;7.40;;;4.00;;
54923;SDS011;40825;52.270;20.984;2023-06-10T14:21:27;8.60;;;3.80;;
54923;SDS011;40825;52.270;20.984;2023-06-10T14:23:52;7.00;;;4.00;;
54923;SDS011;40825;52.270;20.984;2023-06-10T14:26:18;7.60;;;3.80;;
54923;SDS011;40825;52.270;20.984;2023-06-10T14:28:46;7.20;;;4.20;;
54923;SDS011;40825;52.270;20.984;2023-06-10T14:31:13;5.90;;;3.70;;
54923;SDS011;40825;52.270;20.984;2023-06-10T14:33:38;5.70;;;3.30;;
54923;SDS011;40825;52.270;20.984;2023-06-10T14:36:04;6.90;;;3.50;;
54923;SDS011;40825;52.270;20.984;2023-06-10T14:38:30;9.00;;;4.40;;
54923;SDS011;40825;52.270;20.984;2023-06-10T14:40:55;7.90;;;3.90;;
54923;SDS011;40825;52.270;20.984;2023-06-10T14:43:21;8.00;;;3.90;;
54923;SDS011;40825;52.270;20.984;2023-06-10T14:45:46;8.90;;;4.20;;
54923;SDS011;40825;52.270;20.984;2023-06-10T14:48:12;7.30;;;3.30;;
54923;SDS011;40825;52.270;20.984;2023-06-10T14:50:38;9.00;;;4.40;;
54923;SDS011;40825;52.270;20.984;2023-06-10T14:53:05;6.90;;;3.30;;
54923;SDS011;40825;52.270;20.984;2023-06-10T14:55:31;6.90;;;3.50;;
54923;SDS011;40825;52.270;20.984;2023-06-10T14:57:56;7.60;;;3.40;;
54923;SDS011;40825;52.270;20.984;2023-06-10T15:00:23;8.20;;;3.90;;
54923;SDS011;40825;52.270;20.984;2023-06-10T15:02:50;6.60;;;3.30;;
54923;SDS011;40825;52.270;20.984;2023-06-10T15:05:17;8.90;;;3.50;;
54923;SDS011;40825;52.270;20.984;2023-06-10T15:07:44;6.80;;;3.90;;
54923;SDS011;40825;52.270;20.984;2023-06-10T15:10:11;9.30;;;4.10;;
54923;SDS011;40825;52.270;20.984;2023-06-10T15:12:37;8.20;;;3.60;;